CYBC

Baie Comeau Airport

ICAO Code CYBC
IATA Code YBC
Name Baie Comeau Airport
Location Baie-Comeau, Quebec, CA
Elevation 71 Feet / 21.6 Meters
Latitude 49.13250000
Longitude -68.20444444
METAR CYBC 080700Z AUTO 09009KT 9SM OVC007 03/02 A3006 RMK SLP183
Extra information Display Charts and CFS
Display NOTAMS
Runway Length Width Surface Elevation
10 6000 ft 150 ft ASP 70 ft
28 6000 ft 150 ft ASP 66 ft

Mandatory Routes

Baie Comeau Airport

Direction Destination Level Remark Type Route
DEP TO W H&L A120 & ABV RNAV MIVAX
DEP TO W L A100 & BLW RNAV YBC V316 MIVAX